createdAt,value
2018-01-25T00:00:02.868Z,6.24
2018-01-25T00:00:06.868Z,6.25
2018-01-25T00:00:10.971Z,6.24
2018-01-25T00:00:14.756Z,6.3
2018-01-25T00:00:18.756Z,6.3
2018-01-25T00:00:22.754Z,6.24
2018-01-25T00:00:26.762Z,6.25
2018-01-25T00:00:30.555Z,6.25
2018-01-25T00:00:34.763Z,6.3
2018-01-25T00:00:38.669Z,6.3
2018-01-25T00:00:42.454Z,6.25
2018-01-25T00:00:46.352Z,6.35
2018-01-25T00:00:50.463Z,6.25
2018-01-25T00:00:54.251Z,6.33
2018-01-25T00:00:57.942Z,6.35
2018-01-25T00:01:01.782Z,6.36
2018-01-25T00:01:05.466Z,6.25
2018-01-25T00:01:09.358Z,6.38
2018-01-25T00:01:13.258Z,6.39
2018-01-25T00:01:17.260Z,6.35
2018-01-25T00:01:21.150Z,6.35
2018-01-25T00:01:25.256Z,6.36
2018-01-25T00:01:29.369Z,6.33
2018-01-25T00:01:33.368Z,6.28
2018-01-25T00:01:37.476Z,6.39
2018-01-25T00:01:41.577Z,6.35
2018-01-25T00:01:45.580Z,6.28
2018-01-25T00:01:49.371Z,6.3
2018-01-25T00:01:53.261Z,6.27
2018-01-25T00:01:57.153Z,6.4
2018-01-25T00:02:01.161Z,6.38
2018-01-25T00:02:05.053Z,6.32
2018-01-25T00:02:09.048Z,6.35
2018-01-25T00:02:12.730Z,6.4
2018-01-25T00:02:16.743Z,6.43
2018-01-25T00:02:20.649Z,6.42
2018-01-25T00:02:24.547Z,6.4
2018-01-25T00:02:28.551Z,6.46
2018-01-25T00:02:32.602Z,6.39
2018-01-25T00:02:36.395Z,6.28
2018-01-25T00:02:40.195Z,6.45
2018-01-25T00:02:44.187Z,6.28
2018-01-25T00:02:48.086Z,6.32
2018-01-25T00:02:51.978Z,6.28
2018-01-25T00:02:55.971Z,6.4
2018-01-25T00:02:59.756Z,6.35
2018-01-25T00:03:03.763Z,6.43
2018-01-25T00:03:07.767Z,6.35
2018-01-25T00:03:11.770Z,6.39
2018-01-25T00:03:16.234Z,6.42
2018-01-25T00:03:20.241Z,6.32
2018-01-25T00:03:24.031Z,6.36
2018-01-25T00:03:27.928Z,6.43
2018-01-25T00:03:31.820Z,6.42
2018-01-25T00:03:35.719Z,6.48
2018-01-25T00:03:39.507Z,6.35
2018-01-25T00:03:43.399Z,6.39
2018-01-25T00:03:47.337Z,6.39
2018-01-25T00:03:51.238Z,6.35
2018-01-25T00:03:54.925Z,6.35
2018-01-25T00:03:58.922Z,6.28
2018-01-25T00:04:02.710Z,6.38
2018-01-25T00:04:06.503Z,6.35
2018-01-25T00:04:10.293Z,6.45
2018-01-25T00:04:14.079Z,6.46
2018-01-25T00:04:18.073Z,6.46
2018-01-25T00:04:21.970Z,6.42
2018-01-25T00:04:25.862Z,6.33
2018-01-25T00:04:29.916Z,6.46
2018-01-25T00:04:33.708Z,6.42
2018-01-25T00:04:37.613Z,6.42
2018-01-25T00:04:41.511Z,6.43
2018-01-25T00:04:45.508Z,6.35
2018-01-25T00:04:49.506Z,6.46
2018-01-25T00:04:53.395Z,6.5
2018-01-25T00:04:57.189Z,6.42
2018-01-25T00:05:00.872Z,6.39
2018-01-25T00:05:04.873Z,6.38
2018-01-25T00:05:08.664Z,6.45
2018-01-25T00:05:12.554Z,6.48
2018-01-25T00:05:16.442Z,6.39
2018-01-25T00:05:20.228Z,6.4
2018-01-25T00:05:24.015Z,6.4
2018-01-25T00:05:28.008Z,6.46
2018-01-25T00:05:32.115Z,6.45
2018-01-25T00:05:36.119Z,6.48
2018-01-25T00:05:39.806Z,6.42
2018-01-25T00:05:44.012Z,6.46
2018-01-25T00:05:48.118Z,6.42
2018-01-25T00:05:52.223Z,6.43
2018-01-25T00:05:56.230Z,6.39
2018-01-25T00:06:00.334Z,6.48
2018-01-25T00:06:04.532Z,6.4
2018-01-25T00:06:08.427Z,6.4
2018-01-25T00:06:12.325Z,6.38
2018-01-25T00:06:16.316Z,6.5
2018-01-25T00:06:20.522Z,6.54
2018-01-25T00:06:24.418Z,6.5
2018-01-25T00:06:28.424Z,6.38
2018-01-25T00:06:32.314Z,6.53
2018-01-25T00:06:36.211Z,6.51
2018-01-25T00:06:39.888Z,6.46
2018-01-25T00:06:44.018Z,6.53
2018-01-25T00:06:48.119Z,6.55
2018-01-25T00:06:52.233Z,6.54
2018-01-25T00:06:56.230Z,6.5
2018-01-25T00:07:00.224Z,6.46
2018-01-25T00:07:04.519Z,6.53
2018-01-25T00:07:08.625Z,6.55
2018-01-25T00:07:12.637Z,6.54
2018-01-25T00:07:16.421Z,6.45
2018-01-25T00:07:20.413Z,6.51
2018-01-25T00:07:24.306Z,6.48
2018-01-25T00:07:28.100Z,6.5
2018-01-25T00:07:31.889Z,6.54
2018-01-25T00:07:35.679Z,6.54
2018-01-25T00:07:39.574Z,6.51
2018-01-25T00:07:43.575Z,6.51
2018-01-25T00:07:47.472Z,6.54
2018-01-25T00:07:51.513Z,6.54
2018-01-25T00:07:55.276Z,6.54
2018-01-25T00:07:59.279Z,6.48
2018-01-25T00:08:03.583Z,6.51
2018-01-25T00:08:07.477Z,6.53
2018-01-25T00:08:11.376Z,6.55
2018-01-25T00:08:15.592Z,6.57
2018-01-25T00:08:19.592Z,6.54
2018-01-25T00:08:23.594Z,6.57
2018-01-25T00:08:27.814Z,6.54
2018-01-25T00:08:31.707Z,6.53
2018-01-25T00:08:35.492Z,6.55
2018-01-25T00:08:39.488Z,6.57
2018-01-25T00:08:43.385Z,6.58
2018-01-25T00:08:47.280Z,6.57
2018-01-25T00:08:51.282Z,6.58
2018-01-25T00:08:55.177Z,6.58
2018-01-25T00:08:58.863Z,6.57
2018-01-25T00:09:02.971Z,6.51
2018-01-25T00:09:06.975Z,6.57
2018-01-25T00:09:10.868Z,6.61
2018-01-25T00:09:14.769Z,6.58
2018-01-25T00:09:18.806Z,6.54
2018-01-25T00:09:23.095Z,6.57
2018-01-25T00:09:26.986Z,6.6
2018-01-25T00:09:30.880Z,6.64
2018-01-25T00:09:34.778Z,6.58
2018-01-25T00:09:38.566Z,6.6
2018-01-25T00:09:42.565Z,6.6
2018-01-25T00:09:46.667Z,6.61
2018-01-25T00:09:50.568Z,6.6
2018-01-25T00:09:54.465Z,6.57
2018-01-25T00:09:58.357Z,6.57
2018-01-25T00:10:02.556Z,6.63
2018-01-25T00:10:06.554Z,6.63
2018-01-25T00:10:10.760Z,6.58
2018-01-25T00:10:14.754Z,6.6
2018-01-25T00:10:18.759Z,6.57
2018-01-25T00:10:22.661Z,6.57
2018-01-25T00:10:26.558Z,6.61
2018-01-25T00:10:30.453Z,6.55
2018-01-25T00:10:34.245Z,6.57
2018-01-25T00:10:38.248Z,6.55
2018-01-25T00:10:42.031Z,6.54
2018-01-25T00:10:45.921Z,6.6
2018-01-25T00:10:49.924Z,6.6
2018-01-25T00:10:53.923Z,6.61
2018-01-25T00:10:57.925Z,6.57
2018-01-25T00:11:01.822Z,6.57
2018-01-25T00:11:05.769Z,6.64
2018-01-25T00:11:09.768Z,6.6
2018-01-25T00:11:13.981Z,6.58
2018-01-25T00:11:17.771Z,6.68
2018-01-25T00:11:21.877Z,6.63
2018-01-25T00:11:26.088Z,6.61
2018-01-25T00:11:29.879Z,6.63
2018-01-25T00:11:33.883Z,6.55
2018-01-25T00:11:37.993Z,6.63
2018-01-25T00:11:41.991Z,6.63
2018-01-25T00:11:45.994Z,6.64
2018-01-25T00:11:50.098Z,6.63
2018-01-25T00:11:54.106Z,6.65
2018-01-25T00:11:58.001Z,6.64
2018-01-25T00:12:01.687Z,6.68
2018-01-25T00:12:05.688Z,6.63
2018-01-25T00:12:09.586Z,6.63
2018-01-25T00:12:13.381Z,6.57
2018-01-25T00:12:17.066Z,6.65
2018-01-25T00:12:20.862Z,6.63
2018-01-25T00:12:24.867Z,6.63
2018-01-25T00:12:28.976Z,6.58
2018-01-25T00:12:32.981Z,6.64
2018-01-25T00:12:37.085Z,6.65
2018-01-25T00:12:41.084Z,6.68
2018-01-25T00:12:44.976Z,6.55
2018-01-25T00:12:48.974Z,6.58
2018-01-25T00:12:52.980Z,6.58
2018-01-25T00:12:56.774Z,6.64
2018-01-25T00:13:00.590Z,6.57
2018-01-25T00:13:04.587Z,6.64
2018-01-25T00:13:08.799Z,6.69
2018-01-25T00:13:12.897Z,6.64
2018-01-25T00:13:16.740Z,6.63
2018-01-25T00:13:20.737Z,6.65
2018-01-25T00:13:24.950Z,6.6
2018-01-25T00:13:28.739Z,6.58
2018-01-25T00:13:32.633Z,6.63
2018-01-25T00:13:36.417Z,6.68
2018-01-25T00:13:40.208Z,6.68
2018-01-25T00:13:44.098Z,6.63
2018-01-25T00:13:48.200Z,6.64
2018-01-25T00:13:52.095Z,6.64
2018-01-25T00:13:56.355Z,6.69
2018-01-25T00:14:00.467Z,6.6
2018-01-25T00:14:04.463Z,6.58
2018-01-25T00:14:08.362Z,6.63
2018-01-25T00:14:12.151Z,6.69
2018-01-25T00:14:15.941Z,6.68
2018-01-25T00:14:19.622Z,6.6
2018-01-25T00:14:23.408Z,6.65
2018-01-25T00:14:27.198Z,6.6
2018-01-25T00:14:31.203Z,6.68
2018-01-25T00:14:35.099Z,6.68
2018-01-25T00:14:38.785Z,6.64
2018-01-25T00:14:42.779Z,6.6
2018-01-25T00:14:46.887Z,6.63
2018-01-25T00:14:50.987Z,6.63
2018-01-25T00:14:54.669Z,6.61
2018-01-25T00:14:58.708Z,6.57
2018-01-25T00:15:03.260Z,6.64
2018-01-25T00:15:07.056Z,6.6
2018-01-25T00:15:10.952Z,6.57
2018-01-25T00:15:14.955Z,6.68
2018-01-25T00:15:19.065Z,6.68
2018-01-25T00:15:23.175Z,6.64
2018-01-25T00:15:27.275Z,6.54
2018-01-25T00:15:31.495Z,6.61
2018-01-25T00:15:35.391Z,6.57
2018-01-25T00:15:39.180Z,6.68
2018-01-25T00:15:43.071Z,6.64
2018-01-25T00:15:47.068Z,6.64
2018-01-25T00:15:50.856Z,6.63
2018-01-25T00:15:54.752Z,6.61
2018-01-25T00:15:58.747Z,6.64
2018-01-25T00:16:03.311Z,6.6
2018-01-25T00:16:07.431Z,6.68
2018-01-25T00:16:11.542Z,6.68
2018-01-25T00:16:15.430Z,6.64
2018-01-25T00:16:19.436Z,6.65
2018-01-25T00:16:23.225Z,6.64
2018-01-25T00:16:27.118Z,6.64
2018-01-25T00:16:30.908Z,6.61
2018-01-25T00:16:34.906Z,6.58
2018-01-25T00:16:38.593Z,6.58
2018-01-25T00:16:42.489Z,6.64
2018-01-25T00:16:46.487Z,6.61
2018-01-25T00:16:50.486Z,6.61
2018-01-25T00:16:54.384Z,6.61
2018-01-25T00:16:58.379Z,6.63
2018-01-25T00:17:02.898Z,6.61
2018-01-25T00:17:06.681Z,6.65
2018-01-25T00:17:10.472Z,6.63
2018-01-25T00:17:14.362Z,6.55
2018-01-25T00:17:18.257Z,6.64
2018-01-25T00:17:21.935Z,6.55
2018-01-25T00:17:25.938Z,6.54
2018-01-25T00:17:29.936Z,6.65
2018-01-25T00:17:33.728Z,6.64
2018-01-25T00:17:37.525Z,6.63
2018-01-25T00:17:41.525Z,6.57
2018-01-25T00:17:45.428Z,6.64
2018-01-25T00:17:49.219Z,6.6
2018-01-25T00:17:53.120Z,6.58
2018-01-25T00:17:57.016Z,6.6
2018-01-25T00:18:01.122Z,6.61
2018-01-25T00:18:04.808Z,6.71
2018-01-25T00:18:08.808Z,6.61
2018-01-25T00:18:12.815Z,6.65
2018-01-25T00:18:16.706Z,6.61
2018-01-25T00:18:20.715Z,6.63
2018-01-25T00:18:24.711Z,6.58
2018-01-25T00:18:28.608Z,6.6
2018-01-25T00:18:32.500Z,6.61
2018-01-25T00:18:36.186Z,6.65
2018-01-25T00:18:40.392Z,6.6
2018-01-25T00:18:44.388Z,6.68
2018-01-25T00:18:48.180Z,6.57
2018-01-25T00:18:52.177Z,6.6
2018-01-25T00:18:56.085Z,6.61
2018-01-25T00:18:59.869Z,6.6
2018-01-25T00:19:03.866Z,6.55
2018-01-25T00:19:07.867Z,6.6
2018-01-25T00:19:11.765Z,6.6
2018-01-25T00:19:15.767Z,6.61
2018-01-25T00:19:19.769Z,6.57
2018-01-25T00:19:23.877Z,6.64
2018-01-25T00:19:27.782Z,6.54
2018-01-25T00:19:31.467Z,6.58
2018-01-25T00:19:35.256Z,6.63
2018-01-25T00:19:39.046Z,6.57
2018-01-25T00:19:42.840Z,6.58
2018-01-25T00:19:46.738Z,6.6
2018-01-25T00:19:50.792Z,6.57
2018-01-25T00:19:54.689Z,6.54
2018-01-25T00:19:58.693Z,6.57
2018-01-25T00:20:02.633Z,6.58
2018-01-25T00:20:06.426Z,6.58
2018-01-25T00:20:10.424Z,6.58
2018-01-25T00:20:14.326Z,6.6
2018-01-25T00:20:18.221Z,6.58
2018-01-25T00:20:22.110Z,6.58
2018-01-25T00:20:25.906Z,6.57
2018-01-25T00:20:29.797Z,6.55
2018-01-25T00:20:33.585Z,6.57
2018-01-25T00:20:37.478Z,6.53
2018-01-25T00:20:41.377Z,6.55
2018-01-25T00:20:45.169Z,6.54
2018-01-25T00:20:48.960Z,6.55
2018-01-25T00:20:53.061Z,6.55
2018-01-25T00:20:56.961Z,6.55
2018-01-25T00:21:01.171Z,6.54
2018-01-25T00:21:05.005Z,6.55
2018-01-25T00:21:08.904Z,6.55
2018-01-25T00:21:12.796Z,6.54
2018-01-25T00:21:16.488Z,6.51
2018-01-25T00:21:20.382Z,6.57
2018-01-25T00:21:24.285Z,6.53
2018-01-25T00:21:28.282Z,6.54
2018-01-25T00:21:32.179Z,6.48
2018-01-25T00:21:36.074Z,6.45
2018-01-25T00:21:40.081Z,6.54
2018-01-25T00:21:44.183Z,6.53
2018-01-25T00:21:48.392Z,6.55
2018-01-25T00:21:52.490Z,6.53
2018-01-25T00:21:56.177Z,6.53
2018-01-25T00:22:00.181Z,6.53
2018-01-25T00:22:04.086Z,6.51
2018-01-25T00:22:07.978Z,6.51
2018-01-25T00:22:11.875Z,6.55
2018-01-25T00:22:15.667Z,6.46
2018-01-25T00:22:19.350Z,6.51
2018-01-25T00:22:23.354Z,6.53
2018-01-25T00:22:27.144Z,6.39
2018-01-25T00:22:30.932Z,6.35
2018-01-25T00:22:34.833Z,6.51
2018-01-25T00:22:38.736Z,6.45
2018-01-25T00:22:42.739Z,6.51
2018-01-25T00:22:46.740Z,6.5
2018-01-25T00:22:50.741Z,6.48
2018-01-25T00:22:54.742Z,6.38
2018-01-25T00:22:58.744Z,6.45
2018-01-25T00:23:02.743Z,6.42
2018-01-25T00:23:06.637Z,6.48
2018-01-25T00:23:10.749Z,6.53
2018-01-25T00:23:14.752Z,6.54
2018-01-25T00:23:18.754Z,6.43
2018-01-25T00:23:22.650Z,6.43
2018-01-25T00:23:26.859Z,6.4
2018-01-25T00:23:30.649Z,6.4
2018-01-25T00:23:34.542Z,6.4
2018-01-25T00:23:38.225Z,6.46
2018-01-25T00:23:42.226Z,6.42
2018-01-25T00:23:46.434Z,6.43
2018-01-25T00:23:50.429Z,6.4
2018-01-25T00:23:54.429Z,6.4
2018-01-25T00:23:58.217Z,6.43
2018-01-25T00:24:02.518Z,6.43
2018-01-25T00:24:06.573Z,6.42
2018-01-25T00:24:10.477Z,6.38
2018-01-25T00:24:14.480Z,6.42
2018-01-25T00:24:18.690Z,6.4
2018-01-25T00:24:22.689Z,6.42
2018-01-25T00:24:26.585Z,6.5
2018-01-25T00:24:30.535Z,6.35
2018-01-25T00:24:34.426Z,6.4
2018-01-25T00:24:38.111Z,6.33
2018-01-25T00:24:42.213Z,6.46
2018-01-25T00:24:46.107Z,6.46
2018-01-25T00:24:50.114Z,6.4
2018-01-25T00:24:54.114Z,6.43
2018-01-25T00:24:58.115Z,6.45
2018-01-25T00:25:02.118Z,6.39
2018-01-25T00:25:06.115Z,6.38
2018-01-25T00:25:10.326Z,6.46
2018-01-25T00:25:14.115Z,6.38
2018-01-25T00:25:17.800Z,6.39
2018-01-25T00:25:21.806Z,6.42
2018-01-25T00:25:25.698Z,6.43
2018-01-25T00:25:29.698Z,6.39
2018-01-25T00:25:33.594Z,6.43
2018-01-25T00:25:37.381Z,6.43
2018-01-25T00:25:41.386Z,6.45
2018-01-25T00:25:45.388Z,6.35
2018-01-25T00:25:49.287Z,6.39
2018-01-25T00:25:53.284Z,6.42
2018-01-25T00:25:57.074Z,6.42
2018-01-25T00:26:00.969Z,6.35
2018-01-25T00:26:05.423Z,6.45
2018-01-25T00:26:09.316Z,6.42
2018-01-25T00:26:13.001Z,6.4
2018-01-25T00:26:16.899Z,6.33
2018-01-25T00:26:20.689Z,6.35
2018-01-25T00:26:24.586Z,6.3
2018-01-25T00:26:28.635Z,6.38
2018-01-25T00:26:32.734Z,6.36
2018-01-25T00:26:36.575Z,6.36
2018-01-25T00:26:40.582Z,6.35
2018-01-25T00:26:44.796Z,6.36
2018-01-25T00:26:48.709Z,6.33
2018-01-25T00:26:52.398Z,6.38
2018-01-25T00:26:56.302Z,6.33
2018-01-25T00:27:00.311Z,6.28
2018-01-25T00:27:04.046Z,6.36
2018-01-25T00:27:08.152Z,6.38
2018-01-25T00:27:12.254Z,6.3
2018-01-25T00:27:16.199Z,6.32
2018-01-25T00:27:20.202Z,6.35
2018-01-25T00:27:24.096Z,6.24
2018-01-25T00:27:27.992Z,6.28
2018-01-25T00:27:31.678Z,6.3
2018-01-25T00:27:35.575Z,6.27
2018-01-25T00:27:39.375Z,6.3
2018-01-25T00:27:43.162Z,6.24
2018-01-25T00:27:47.048Z,6.25
2018-01-25T00:27:51.045Z,6.27
2018-01-25T00:27:54.830Z,6.2
2018-01-25T00:27:58.721Z,6.27
2018-01-25T00:28:02.606Z,6.25
2018-01-25T00:28:06.498Z,6.21
2018-01-25T00:28:10.397Z,6.2
2018-01-25T00:28:14.616Z,6.21
2018-01-25T00:28:18.409Z,6.25
2018-01-25T00:28:22.414Z,6.28
2018-01-25T00:28:26.205Z,6.28
2018-01-25T00:28:30.203Z,6.21
2018-01-25T00:28:34.205Z,6.25
2018-01-25T00:28:38.099Z,6.24
2018-01-25T00:28:42.097Z,6.28
2018-01-25T00:28:45.885Z,6.21
2018-01-25T00:28:49.676Z,6.2
2018-01-25T00:28:53.678Z,6.21
2018-01-25T00:28:57.790Z,6.24
2018-01-25T00:29:01.679Z,6.35
2018-01-25T00:29:05.790Z,6.21
2018-01-25T00:29:09.793Z,6.28
2018-01-25T00:29:13.691Z,6.27
2018-01-25T00:29:17.583Z,6.25
2018-01-25T00:29:21.479Z,6.2
2018-01-25T00:29:25.480Z,6.25
2018-01-25T00:29:29.377Z,6.14
2018-01-25T00:29:33.164Z,6.24
2018-01-25T00:29:37.168Z,6.19
2018-01-25T00:29:41.063Z,6.24
2018-01-25T00:29:44.850Z,6.17
2018-01-25T00:29:48.962Z,6.24
2018-01-25T00:29:52.856Z,6.14
2018-01-25T00:29:56.744Z,6.13
2018-01-25T00:30:00.854Z,6.2
2018-01-25T00:30:04.954Z,6.16
2018-01-25T00:30:09.161Z,6.14
2018-01-25T00:30:13.051Z,6.13
2018-01-25T00:30:16.737Z,6.13
2018-01-25T00:30:20.846Z,6.13
2018-01-25T00:30:24.849Z,6.1
2018-01-25T00:30:29.069Z,6.11
2018-01-25T00:30:32.860Z,6.16
2018-01-25T00:30:36.756Z,6.19
2018-01-25T00:30:40.438Z,6.14
2018-01-25T00:30:44.225Z,6.13
2018-01-25T00:30:48.224Z,6.14
2018-01-25T00:30:52.126Z,6.14
2018-01-25T00:30:56.016Z,6.14
2018-01-25T00:30:59.810Z,6.17
2018-01-25T00:31:04.158Z,6.16
2018-01-25T00:31:08.155Z,6.03
2018-01-25T00:31:11.948Z,6.1
2018-01-25T00:31:15.743Z,6.11
2018-01-25T00:31:19.842Z,6.02
2018-01-25T00:31:23.946Z,6.08
2018-01-25T00:31:27.847Z,6.05
2018-01-25T00:31:31.638Z,6.14
2018-01-25T00:31:35.538Z,6.05
2018-01-25T00:31:39.328Z,6.11
2018-01-25T00:31:43.333Z,6.05
2018-01-25T00:31:47.329Z,6.05
2018-01-25T00:31:51.330Z,6.05
2018-01-25T00:31:55.124Z,6.17
2018-01-25T00:31:58.912Z,6.14
2018-01-25T00:32:02.913Z,6.13
2018-01-25T00:32:06.810Z,6.08
2018-01-25T00:32:10.813Z,6.1
2018-01-25T00:32:14.716Z,6.11
2018-01-25T00:32:18.718Z,6.11
2018-01-25T00:32:22.404Z,6.1
2018-01-25T00:32:26.403Z,6.11
2018-01-25T00:32:30.294Z,6.08
2018-01-25T00:32:34.296Z,6.11
2018-01-25T00:32:38.090Z,6.08
2018-01-25T00:32:42.191Z,6.1
2018-01-25T00:32:45.982Z,6.1
2018-01-25T00:32:49.772Z,6.16
2018-01-25T00:32:53.774Z,6.11
2018-01-25T00:32:57.667Z,6.14
2018-01-25T00:33:02.073Z,6.17
2018-01-25T00:33:05.973Z,6.13
2018-01-25T00:33:09.967Z,6.13
2018-01-25T00:33:13.860Z,6.1
2018-01-25T00:33:17.655Z,6.1
2018-01-25T00:33:21.651Z,6.11
2018-01-25T00:33:25.652Z,6.1
2018-01-25T00:33:29.766Z,6.11
2018-01-25T00:33:33.453Z,6.06
2018-01-25T00:33:37.347Z,6.14
2018-01-25T00:33:41.455Z,6.05
2018-01-25T00:33:45.340Z,6.11
2018-01-25T00:33:49.345Z,6.1
2018-01-25T00:33:53.445Z,6.17
2018-01-25T00:33:57.443Z,6.08
2018-01-25T00:34:01.356Z,6.11
2018-01-25T00:34:05.459Z,6.05
2018-01-25T00:34:09.359Z,6.1
2018-01-25T00:34:13.674Z,6.05
2018-01-25T00:34:17.672Z,6.03
2018-01-25T00:34:21.667Z,6.1
2018-01-25T00:34:25.557Z,6.06
2018-01-25T00:34:29.470Z,6.06
2018-01-25T00:34:33.265Z,6.03
2018-01-25T00:34:37.266Z,5.98
2018-01-25T00:34:41.155Z,6.01
2018-01-25T00:34:45.203Z,6.05
2018-01-25T00:34:48.993Z,5.95
2018-01-25T00:34:52.888Z,5.99
2018-01-25T00:34:56.675Z,5.93
2018-01-25T00:35:00.360Z,6.03
2018-01-25T00:35:04.310Z,5.95
2018-01-25T00:35:08.004Z,6.03
2018-01-25T00:35:11.895Z,5.99
2018-01-25T00:35:16.004Z,6.02
2018-01-25T00:35:19.896Z,5.98
2018-01-25T00:35:23.576Z,5.9
2018-01-25T00:35:27.678Z,5.96
2018-01-25T00:35:31.781Z,5.98
2018-01-25T00:35:35.776Z,5.98
2018-01-25T00:35:39.571Z,5.93
2018-01-25T00:35:43.363Z,6.01
2018-01-25T00:35:47.366Z,6.03
2018-01-25T00:35:51.264Z,5.98
2018-01-25T00:35:55.168Z,5.98
2018-01-25T00:35:58.962Z,5.99
2018-01-25T00:36:03.109Z,5.98
2018-01-25T00:36:07.112Z,5.99
2018-01-25T00:36:11.113Z,5.99
2018-01-25T00:36:14.903Z,5.95
2018-01-25T00:36:18.791Z,5.98
2018-01-25T00:36:22.894Z,6.01
2018-01-25T00:36:26.896Z,6.01
2018-01-25T00:36:31.003Z,5.9
2018-01-25T00:36:35.005Z,5.95
2018-01-25T00:36:39.121Z,5.98
2018-01-25T00:36:42.907Z,5.85
2018-01-25T00:36:46.698Z,5.88
2018-01-25T00:36:50.488Z,5.95
2018-01-25T00:36:54.485Z,6.01
2018-01-25T00:36:58.485Z,5.92
2018-01-25T00:37:02.371Z,5.88
2018-01-25T00:37:06.380Z,5.87
2018-01-25T00:37:10.294Z,5.87
2018-01-25T00:37:14.081Z,5.93
2018-01-25T00:37:17.869Z,5.84
2018-01-25T00:37:21.761Z,5.95
2018-01-25T00:37:25.548Z,5.81
2018-01-25T00:37:29.339Z,5.87
2018-01-25T00:37:33.130Z,5.81
2018-01-25T00:37:37.235Z,5.84
2018-01-25T00:37:40.921Z,5.83
2018-01-25T00:37:44.603Z,5.83
2018-01-25T00:37:48.394Z,5.88
2018-01-25T00:37:52.180Z,5.87
2018-01-25T00:37:56.071Z,5.88
2018-01-25T00:38:00.176Z,5.9
2018-01-25T00:38:04.126Z,5.81
2018-01-25T00:38:07.810Z,5.9
2018-01-25T00:38:11.814Z,5.85
2018-01-25T00:38:15.709Z,5.92
2018-01-25T00:38:19.604Z,5.85
2018-01-25T00:38:23.596Z,5.88
2018-01-25T00:38:27.807Z,5.92
2018-01-25T00:38:31.702Z,5.88
2018-01-25T00:38:35.489Z,5.92
2018-01-25T00:38:39.382Z,5.87
2018-01-25T00:38:43.278Z,5.88
2018-01-25T00:38:47.487Z,5.92
2018-01-25T00:38:51.383Z,5.88
2018-01-25T00:38:55.587Z,5.8
2018-01-25T00:38:59.272Z,5.84
2018-01-25T00:39:03.323Z,5.85
2018-01-25T00:39:07.433Z,5.85
2018-01-25T00:39:11.430Z,5.83
2018-01-25T00:39:15.328Z,5.81
2018-01-25T00:39:19.438Z,5.8
2018-01-25T00:39:23.221Z,5.84
2018-01-25T00:39:27.324Z,5.9
2018-01-25T00:39:31.114Z,5.84
2018-01-25T00:39:35.010Z,5.77
2018-01-25T00:39:39.119Z,5.88
2018-01-25T00:39:43.013Z,5.81
2018-01-25T00:39:46.905Z,5.83
2018-01-25T00:39:50.692Z,5.78
2018-01-25T00:39:54.690Z,5.73
2018-01-25T00:39:58.477Z,5.84
2018-01-25T00:40:02.476Z,5.75
2018-01-25T00:40:06.270Z,5.84
2018-01-25T00:40:10.377Z,5.73
2018-01-25T00:40:14.063Z,5.77
2018-01-25T00:40:18.177Z,5.77
2018-01-25T00:40:22.291Z,5.77
2018-01-25T00:40:26.289Z,5.77
2018-01-25T00:40:30.293Z,5.8
2018-01-25T00:40:34.196Z,5.8
2018-01-25T00:40:37.879Z,5.77
2018-01-25T00:40:41.870Z,5.75
2018-01-25T00:40:45.762Z,5.74
2018-01-25T00:40:49.765Z,5.74
2018-01-25T00:40:53.764Z,5.81
2018-01-25T00:40:57.757Z,5.81
2018-01-25T00:41:01.648Z,5.75
2018-01-25T00:41:05.586Z,5.81
2018-01-25T00:41:09.487Z,5.77
2018-01-25T00:41:13.598Z,5.81
2018-01-25T00:41:17.386Z,5.74
2018-01-25T00:41:21.173Z,5.81
2018-01-25T00:41:25.069Z,5.81
2018-01-25T00:41:28.856Z,5.81
2018-01-25T00:41:32.749Z,5.8
2018-01-25T00:41:36.856Z,5.8
2018-01-25T00:41:40.746Z,5.78
2018-01-25T00:41:44.532Z,5.74
2018-01-25T00:41:48.530Z,5.7
2018-01-25T00:41:52.532Z,5.74
2018-01-25T00:41:56.536Z,5.78
2018-01-25T00:42:00.543Z,5.74
2018-01-25T00:42:04.527Z,5.8
2018-01-25T00:42:08.636Z,5.78
2018-01-25T00:42:12.636Z,5.77
2018-01-25T00:42:16.736Z,5.77
2018-01-25T00:42:20.735Z,5.7
2018-01-25T00:42:24.729Z,5.75
2018-01-25T00:42:28.723Z,5.77
2018-01-25T00:42:32.728Z,5.74
2018-01-25T00:42:36.516Z,5.78
2018-01-25T00:42:40.308Z,5.77
2018-01-25T00:42:44.308Z,5.77
2018-01-25T00:42:48.095Z,5.67
2018-01-25T00:42:52.091Z,5.74
2018-01-25T00:42:56.089Z,5.74
2018-01-25T00:42:59.987Z,5.7
2018-01-25T00:43:03.984Z,5.73
2018-01-25T00:43:08.089Z,5.75
2018-01-25T00:43:12.295Z,5.75
2018-01-25T00:43:16.083Z,5.75
2018-01-25T00:43:19.977Z,5.78
2018-01-25T00:43:23.770Z,5.78
2018-01-25T00:43:27.769Z,5.77
2018-01-25T00:43:31.669Z,5.67
2018-01-25T00:43:35.667Z,5.74
2018-01-25T00:43:39.567Z,5.73
2018-01-25T00:43:43.457Z,5.73
2018-01-25T00:43:47.356Z,5.78
2018-01-25T00:43:51.358Z,5.75
2018-01-25T00:43:55.147Z,5.73
2018-01-25T00:43:59.035Z,5.74
2018-01-25T00:44:02.932Z,5.65
2018-01-25T00:44:06.827Z,5.73
2018-01-25T00:44:10.722Z,5.67
2018-01-25T00:44:14.763Z,5.6
2018-01-25T00:44:18.446Z,5.7
2018-01-25T00:44:22.555Z,5.73
2018-01-25T00:44:26.801Z,5.69
2018-01-25T00:44:30.804Z,5.65
2018-01-25T00:44:34.698Z,5.66
2018-01-25T00:44:38.589Z,5.67
2018-01-25T00:44:42.633Z,5.67
2018-01-25T00:44:46.424Z,5.59
2018-01-25T00:44:50.434Z,5.67
2018-01-25T00:44:54.328Z,5.73
2018-01-25T00:44:58.229Z,5.59
2018-01-25T00:45:02.170Z,5.62
2018-01-25T00:45:05.854Z,5.69
2018-01-25T00:45:09.957Z,5.67
2018-01-25T00:45:13.741Z,5.65
2018-01-25T00:45:17.737Z,5.65
2018-01-25T00:45:21.745Z,5.73
2018-01-25T00:45:25.740Z,5.62
2018-01-25T00:45:29.640Z,5.65
2018-01-25T00:45:33.426Z,5.66
2018-01-25T00:45:37.321Z,5.65
2018-01-25T00:45:41.218Z,5.65
2018-01-25T00:45:45.222Z,5.65
2018-01-25T00:45:48.905Z,5.62
2018-01-25T00:45:52.801Z,5.66
2018-01-25T00:45:56.601Z,5.66
2018-01-25T00:46:00.702Z,5.58
2018-01-25T00:46:04.747Z,5.66
2018-01-25T00:46:08.541Z,5.66
2018-01-25T00:46:12.541Z,5.66
2018-01-25T00:46:16.329Z,5.66
2018-01-25T00:46:20.322Z,5.65
2018-01-25T00:46:24.228Z,5.62
2018-01-25T00:46:28.326Z,5.69
2018-01-25T00:46:32.326Z,5.62
2018-01-25T00:46:36.224Z,5.63
2018-01-25T00:46:40.224Z,5.63
2018-01-25T00:46:44.218Z,5.63
2018-01-25T00:46:48.008Z,5.63
2018-01-25T00:46:51.898Z,5.63
2018-01-25T00:46:55.833Z,5.6
2018-01-25T00:46:59.940Z,5.63
2018-01-25T00:47:04.156Z,5.62
2018-01-25T00:47:08.159Z,5.62
2018-01-25T00:47:12.161Z,5.63
2018-01-25T00:47:16.056Z,5.62
2018-01-25T00:47:20.055Z,5.66
2018-01-25T00:47:24.053Z,5.66
2018-01-25T00:47:28.160Z,5.66
2018-01-25T00:47:32.160Z,5.66
2018-01-25T00:47:36.166Z,5.6
2018-01-25T00:47:40.171Z,5.66
2018-01-25T00:47:44.064Z,5.6
2018-01-25T00:47:47.959Z,5.63
2018-01-25T00:47:51.847Z,5.66
2018-01-25T00:47:55.853Z,5.6
2018-01-25T00:47:59.643Z,5.6
2018-01-25T00:48:03.749Z,5.66
2018-01-25T00:48:07.647Z,5.62
2018-01-25T00:48:11.752Z,5.65
2018-01-25T00:48:15.753Z,5.58
2018-01-25T00:48:19.764Z,5.65
2018-01-25T00:48:23.760Z,5.66
2018-01-25T00:48:27.657Z,5.65
2018-01-25T00:48:31.557Z,5.66
2018-01-25T00:48:35.445Z,5.6
2018-01-25T00:48:39.337Z,5.62
2018-01-25T00:48:43.127Z,5.63
2018-01-25T00:48:47.136Z,5.65
2018-01-25T00:48:51.131Z,5.55
2018-01-25T00:48:55.235Z,5.59
2018-01-25T00:48:59.025Z,5.66
2018-01-25T00:49:02.923Z,5.63
2018-01-25T00:49:06.818Z,5.65
2018-01-25T00:49:10.820Z,5.63
2018-01-25T00:49:14.816Z,5.58
2018-01-25T00:49:18.715Z,5.67
2018-01-25T00:49:22.825Z,5.66
2018-01-25T00:49:26.618Z,5.59
2018-01-25T00:49:30.520Z,5.69
2018-01-25T00:49:34.412Z,5.65
2018-01-25T00:49:38.408Z,5.65
2018-01-25T00:49:42.193Z,5.63
2018-01-25T00:49:45.987Z,5.6
2018-01-25T00:49:49.988Z,5.63
2018-01-25T00:49:53.670Z,5.59
2018-01-25T00:49:57.351Z,5.6
2018-01-25T00:50:01.356Z,5.65
2018-01-25T00:50:05.368Z,5.66
2018-01-25T00:50:09.169Z,5.62
2018-01-25T00:50:12.957Z,5.62
2018-01-25T00:50:16.956Z,5.65
2018-01-25T00:50:21.064Z,5.59
2018-01-25T00:50:25.224Z,5.62
2018-01-25T00:50:29.010Z,5.59
2018-01-25T00:50:33.011Z,5.6
2018-01-25T00:50:37.011Z,5.59
2018-01-25T00:50:41.105Z,5.55
2018-01-25T00:50:45.009Z,5.6
2018-01-25T00:50:49.216Z,5.65
2018-01-25T00:50:53.006Z,5.59
2018-01-25T00:50:57.007Z,5.6
2018-01-25T00:51:00.904Z,5.62
2018-01-25T00:51:05.162Z,5.59
2018-01-25T00:51:08.950Z,5.65
2018-01-25T00:51:12.737Z,5.63
2018-01-25T00:51:16.744Z,5.6
2018-01-25T00:51:20.640Z,5.65
2018-01-25T00:51:24.742Z,5.62
2018-01-25T00:51:28.741Z,5.65
2018-01-25T00:51:32.426Z,5.55
2018-01-25T00:51:36.420Z,5.58
2018-01-25T00:51:40.206Z,5.59
2018-01-25T00:51:44.200Z,5.65
2018-01-25T00:51:48.107Z,5.63
2018-01-25T00:51:52.105Z,5.55
2018-01-25T00:51:56.009Z,5.59
2018-01-25T00:51:59.903Z,5.65
2018-01-25T00:52:03.689Z,5.62
2018-01-25T00:52:07.580Z,5.56
2018-01-25T00:52:11.577Z,5.59
2018-01-25T00:52:15.478Z,5.58
2018-01-25T00:52:19.392Z,5.47
2018-01-25T00:52:23.394Z,5.59
2018-01-25T00:52:27.502Z,5.65
2018-01-25T00:52:31.298Z,5.52
2018-01-25T00:52:35.099Z,5.62
2018-01-25T00:52:38.898Z,5.6